x

N01 - Northeast Channel (44024) Wave Buoy

8:04am - Sun 28th May 2017 All times are ADT. -3 hours from GMT.

  • Sig Wave height 6.2ft
  • Peak Period 8s
  • Wind
    7mph, 7mph gusts
  • Sea Temp 45°f
  • Air Temp 45°f
  • Sea Pressure 1013.1mb
  • N01 - Northeast Channel
  • N01 - Northeast Channel

More Historic Weather Station data

Upgrade to MSW Pro to gain access to the past 30 days of data for over 8000 Wavebouys and Weather Stations around the globe.

Join Pro

Comparision Forecast

View Surf forecast
   
Sun 05/28 8:04am 6ft 8s 7 7 mph 1013.1mb 45f 45f
7:04am 6ft 8s 7 9 mph 1012.6mb 45f 45f
6:04am 6ft 8s 7 9 mph 1011.6mb 44f 45f
5:04am 6ft 8s 7 9 mph 1011.8mb 44f 45f
4:04am 6ft 8s 4 7 mph 1011.7mb 44f 45f
3:04am 6ft 8s 4 4 mph 1011.7mb 45f 45f
2:04am 6ft 8s 4 4 mph 1011.7mb 45f 45f
1:04am 5ft 8s 2 4 mph 1011.6mb 44f 45f
12:04am 5.5ft 8s 2 4 mph 1011.4mb 45f 45f
Sat 05/27 11:04pm 6ft 11s 4 7 mph 1011.2mb 45f 45f
10:04pm 7.5ft 11s 7 9 mph 1010.8mb 44f 44f
9:04pm 7ft 8s 4 7 mph 1010.5mb 44f 44f
8:04pm 7.5ft 11s 4 7 mph 1010.1mb 44f 44f
7:04pm 9.5ft 8s 7 7 mph 1009.6mb 44f 44f
6:04pm 8ft 8s 7 9 mph 1009mb 44f 44f
5:04pm 8ft 8s 11 11 mph 1008.5mb 44f 44f
4:04pm 9ft 8s 11 13 mph 1008.2mb 44f 44f
3:04pm 7ft 8s 13 16 mph 1007.9mb 43f 44f
2:04pm 8ft 11s 13 16 mph 1007.5mb 43f 44f
1:04pm 8ft 8s 11 13 mph 1006.9mb 43f 44f
12:04pm 8ft 11s 13 18 mph 1006.4mb 43f 45f
11:04am 8ft 11s 11 16 mph 1006.3mb 42f 45f
10:04am 9.5ft 11s 13 18 mph 1006mb 43f 45f
9:04am 9ft 11s 13 18 mph 1005.3mb 43f 45f
8:04am 10ft 11s 13 18 mph 1004.8mb 43f 45f
7:04am 9ft 11s 16 20 mph 1004.2mb 43f 45f
6:04am 8ft 8s 20 22 mph 1003.4mb 42f 45f
5:04am 10ft 11s 20 22 mph 1002.2mb 43f 45f
4:04am 9.5ft 11s 22 27 mph 1001.6mb 44f 46f
3:04am 10ft 11s 20 25 mph 1001.2mb 44f 45f
2:04am 9.5ft 8s 16 18 mph 1000.4mb 43f 46f
1:04am 11ft 11s 16 18 mph 999.8mb 43f 46f
12:04am 9ft 11s 16 20 mph 999.6mb 43f 46f
Fri 05/26 11:04pm 10ft 11s 13 18 mph 999mb 43f 46f
10:04pm 9ft 11s 16 18 mph 998.6mb 43f 46f
9:04pm 9ft 11s 16 20 mph 998.1mb 43f 47f
8:04pm 9ft 11s 16 18 mph 997.6mb 43f 47f
7:04pm 8.5ft 11s 16 18 mph 997.5mb 43f 47f
6:04pm 9ft 11s 18 20 mph 997.5mb 44f 49f
5:04pm 8.5ft 11s 16 20 mph 997.7mb 43f 48f
4:04pm 8.5ft 8s 16 18 mph 998mb 44f 48f
3:04pm 7.5ft 8s 13 18 mph 998.6mb 44f 49f
2:04pm 9ft 8s 11 16 mph 999.4mb 43f 48f
1:04pm 8ft 8s 11 16 mph 999.7mb 43f 49f
12:04pm 8ft 8s 16 18 mph 1000.1mb 43f 49f
11:04am 7.5ft 8s 11 13 mph 1000.2mb 43f 48f
10:04am 8ft 11s 7 9 mph 1000.7mb 43f 46f
9:04am 8ft 11s 9 11 mph 1001.2mb 43f 47f
8:04am 8ft 11s 9 13 mph 1001.4mb 44f 48f
7:04am 8ft 11s 11 13 mph 1001.3mb 44f 49f
6:04am 6ft 6s 9 9 mph 1001.2mb 44f 49f
5:04am 8ft 8s 13 16 mph 1001.4mb 44f 47f
4:04am 9ft 8s 18 20 mph 1002.4mb 43f 46f
3:04am 8ft 8s 18 20 mph 1004.5mb 42f 46f
2:04am 8.5ft 8s 18 20 mph 1005.5mb 43f 46f
1:04am 8ft 8s 18 22 mph 1006.1mb 43f 46f
12:04am 7ft 8s 20 25 mph 1007.1mb 43f 47f
Thu 05/25 11:04pm 8ft 8s 20 25 mph 1007.7mb 43f 47f
10:04pm 7.5ft 8s 22 27 mph 1006.9mb 43f 48f
9:04pm 8.5ft 8s 27 29 mph 1006.4mb 43f 48f
8:04pm 10ft 8s 27 34 mph 1007.1mb 44f 48f
7:04pm 10ft 11s 25 34 mph 1007.9mb 44f 48f
6:04pm 9.5ft 11s 22 27 mph 1008.9mb 44f 48f
5:04pm 8.5ft 11s 22 27 mph 1009.4mb 44f 48f
4:04pm 8ft 11s 22 27 mph 1010.2mb 44f 48f
3:04pm 7ft 11s 22 29 mph 1010.5mb 44f 49f
2:04pm 6.5ft 8s 20 25 mph 1011.6mb 44f 48f
1:04pm 6.5ft 8s 20 22 mph 1012.3mb 44f 48f
12:04pm 6ft 11s 18 22 mph 1012.9mb 44f 47f
11:04am 5.5ft 8s 16 18 mph 1013mb 44f 47f
10:04am 6.5ft 11s 18 20 mph 1012.8mb 44f 47f
9:04am 5.5ft 11s 18 22 mph 1012.6mb 44f 47f
8:04am 6ft 11s 16 18 mph 1012.5mb 43f 47f
7:04am 9ft 11s 13 18 mph 1012.3mb 44f 47f
6:04am 8ft 11s 13 16 mph 1011.9mb 44f 46f
5:04am 7ft 11s 16 20 mph 1011.5mb 44f 46f
4:04am 7ft 11s 13 16 mph 1011.8mb 45f 46f
3:04am 5ft 11s 9 11 mph 1011.5mb 45f 46f
2:04am 5ft 8s 9 11 mph 1011.3mb 45f 46f
1:04am 4.5ft 8s 9 11 mph 1010.8mb 45f 47f
12:04am 3.5ft 8s 9 11 mph 1010.3mb 45f 47f
Wed 05/24 11:04pm 3.5ft 8s 9 11 mph 1010.1mb 45f 46f
10:04pm 4ft 8s 11 13 mph 1009.1mb 45f 47f
9:04pm 3.5ft 8s 9 9 mph 1009.8mb 45f 47f
8:04pm 4.5ft 8s 11 13 mph 1009.1mb 44f 46f
7:04pm 6ft 8s 11 11 mph 1008.2mb 44f 46f
6:04pm 5ft 8s 11 13 mph 1008.1mb 44f 47f
5:04pm 6ft 8s 9 11 mph 1008mb 44f 47f
4:04pm 5ft 8s 9 13 mph 1008.1mb 44f 47f
3:04pm 5ft 8s 7 7 mph 1008.1mb 44f 47f
2:04pm 4.5ft 8s 7 7 mph 1008.2mb 45f 47f
1:04pm 5ft 8s 7 9 mph 1008.5mb 45f 47f